Terminal Aerodrome Forecast
Issued by NWS

Home | Current Version | Previous Version | Text Only | Print | Product List | Glossary On
Versions: 1 2 3 4 5 6 7 8 9 10 11 12 13
000
FTUS43 KLSX 121724
TAFCPS
TAF
KCPS 121724Z 1218/1318 31012G18KT P6SM FEW250
     FM122200 30008KT P6SM FEW250
     FM130100 29004KT P6SM FEW200
     FM130400 23004KT P6SM FEW250
     FM131300 19006KT P6SM FEW090 WS012/24035KT
     FM131700 23010G20KT P6SM SCT250=

USA.gov is the U.S. government's official web portal to all federal, state and local government web resources and services.